Arroyo, PR (00714)

3:59 PM AST on June 30, 2015 (GMT -0400)
tikolj | | Change Station
CLOSE
Current Station
Personal Weather Station
Location: Arroyo,
Elevation: 30 ft
Nearby Weather Stations

Elev 30 ft 17.97 °N, 66.06 °W | Updated 4 minutes ago

Mostly Cloudy
Mostly Cloudy
91.4 °F
Feels Like 104 °F
N
7.8
Wind Variable Wind from ESE

Today
High -- | Low -- °F
--% Chance of Precip.
Yesterday
High -- | Low -- °F
Precip. -- in
5:52 AM 7:03 PM
Waxing Gibbous, 98% visible
Pressure 30.08 in
Visibility 10.0 miles
Clouds Few 3400 ft
Scattered Clouds 5000 ft
Mostly Cloudy 11000 ft
Heat Index 104 °F
Dew Point 76 °F
Humidity 62%
Rainfall in
Snow Depth Not available.
UV 3 out of 12
Pollen Not available.
Air Quality Not available.
Flu Activity Local Activity
METAR TJSJ 301956Z 09011KT 10SM FEW034 SCT050 BKN110 28/24 A3008 RMK AO2 SLP184 SHRA DSNT N-NE T02780244

More Conditions Fewer Conditions

Pressure 30.08 in
Visibility 10.0 miles
Clouds Few 3400 ft
Scattered Clouds 5000 ft
Mostly Cloudy 11000 ft
Heat Index 104 °F
Dew Point 76 °F
Humidity 62%
Rainfall in
Snow Depth Not available.
UV 3 out of 12
Pollen Not available.
Air Quality Not available.
Flu Activity Local Activity
METAR TJSJ 301956Z 09011KT 10SM FEW034 SCT050 BKN110 28/24 A3008 RMK AO2 SLP184 SHRA DSNT N-NE T02780244

More Conditions Fewer Conditions

10-Day Weather Forecast

×

Almanac

Astronomy

Jun. 30, 2015 Rise Set
Actual Time
Civil Twilight
Nautical Twilight
Astronomical Twilight
Moon
Length of Visible Light
Length of Day
Tomorrow will be .
, % of the Moon is Illuminated

Today's Extremes

State Highs State Lows

Community

WunderPhotos

Upload Photos

1,834,067 photos uploaded!

WunderBlogs® & News

Nearby

Air Quality

  Air Quality AQ Index Pollutant
Not available.

Snow Depth

Station Depth Elevation

Earthquake Activity

City Distance Mag. Time & Date
Minimum magnitude displayed is 2.5.

Coastal Water Temperatures

Place Temperature

Stations

Nearby Weather Stations

Station Location Temp. Windchill Dew Point Humidity Wind Precip. Elev Updated Type